sensor_id;sensor_type;location;lat;lon;timestamp;temperature;humidity
8338;DHT22;4206;48.634;9.516;2022-11-12T00:02:17;2.30;99.90
8338;DHT22;4206;48.634;9.516;2022-11-12T00:04:42;2.30;99.90
8338;DHT22;4206;48.634;9.516;2022-11-12T00:07:08;2.30;99.90
8338;DHT22;4206;48.634;9.516;2022-11-12T00:09:33;2.30;99.90
8338;DHT22;4206;48.634;9.516;2022-11-12T00:11:59;2.40;99.90
8338;DHT22;4206;48.634;9.516;2022-11-12T00:14:25;2.40;99.90
8338;DHT22;4206;48.634;9.516;2022-11-12T00:16:50;2.40;99.90
8338;DHT22;4206;48.634;9.516;2022-11-12T00:19:16;2.40;99.90
8338;DHT22;4206;48.634;9.516;2022-11-12T00:21:41;2.40;99.90
8338;DHT22;4206;48.634;9.516;2022-11-12T00:24:07;2.40;99.90
8338;DHT22;4206;48.634;9.516;2022-11-12T00:26:33;2.40;99.90
8338;DHT22;4206;48.634;9.516;2022-11-12T00:28:59;2.40;99.90
8338;DHT22;4206;48.634;9.516;2022-11-12T00:31:25;2.30;99.90
8338;DHT22;4206;48.634;9.516;2022-11-12T00:33:50;2.40;99.90
8338;DHT22;4206;48.634;9.516;2022-11-12T00:36:16;2.40;99.90
8338;DHT22;4206;48.634;9.516;2022-11-12T00:38:42;2.50;99.90
8338;DHT22;4206;48.634;9.516;2022-11-12T00:41:08;2.50;99.90
8338;DHT22;4206;48.634;9.516;2022-11-12T00:43:34;2.50;99.90
8338;DHT22;4206;48.634;9.516;2022-11-12T00:46:00;2.40;99.90
8338;DHT22;4206;48.634;9.516;2022-11-12T00:48:25;2.40;99.90
8338;DHT22;4206;48.634;9.516;2022-11-12T00:50:59;2.30;99.90
8338;DHT22;4206;48.634;9.516;2022-11-12T00:53:25;2.20;99.90
8338;DHT22;4206;48.634;9.516;2022-11-12T00:55:51;2.20;99.90
8338;DHT22;4206;48.634;9.516;2022-11-12T00:58:16;2.10;99.90
8338;DHT22;4206;48.634;9.516;2022-11-12T01:00:42;2.10;99.90
8338;DHT22;4206;48.634;9.516;2022-11-12T01:03:08;2.10;99.90
8338;DHT22;4206;48.634;9.516;2022-11-12T01:05:33;2.10;99.90
8338;DHT22;4206;48.634;9.516;2022-11-12T01:07:59;2.00;99.90
8338;DHT22;4206;48.634;9.516;2022-11-12T01:10:24;1.90;99.90
8338;DHT22;4206;48.634;9.516;2022-11-12T01:12:50;1.90;99.90
8338;DHT22;4206;48.634;9.516;2022-11-12T01:15:16;1.80;99.90
8338;DHT22;4206;48.634;9.516;2022-11-12T01:17:41;1.80;99.90
8338;DHT22;4206;48.634;9.516;2022-11-12T01:20:07;1.70;99.90
8338;DHT22;4206;48.634;9.516;2022-11-12T01:22:33;1.70;99.90
8338;DHT22;4206;48.634;9.516;2022-11-12T01:24:59;1.60;99.90
8338;DHT22;4206;48.634;9.516;2022-11-12T01:27:24;1.60;99.90
8338;DHT22;4206;48.634;9.516;2022-11-12T01:29:50;1.60;99.90
8338;DHT22;4206;48.634;9.516;2022-11-12T01:32:16;1.60;99.90
8338;DHT22;4206;48.634;9.516;2022-11-12T01:34:41;1.60;99.90
8338;DHT22;4206;48.634;9.516;2022-11-12T01:37:07;1.50;99.90
8338;DHT22;4206;48.634;9.516;2022-11-12T01:39:32;1.50;99.90
8338;DHT22;4206;48.634;9.516;2022-11-12T01:41:58;1.40;99.90
8338;DHT22;4206;48.634;9.516;2022-11-12T01:44:27;1.40;99.90
8338;DHT22;4206;48.634;9.516;2022-11-12T01:52:36;1.30;99.90
8338;DHT22;4206;48.634;9.516;2022-11-12T01:55:08;1.20;99.90
8338;DHT22;4206;48.634;9.516;2022-11-12T01:57:40;1.20;99.90
8338;DHT22;4206;48.634;9.516;2022-11-12T02:00:10;1.20;99.90
8338;DHT22;4206;48.634;9.516;2022-11-12T02:02:38;1.20;99.90
8338;DHT22;4206;48.634;9.516;2022-11-12T02:05:06;1.30;99.90
8338;DHT22;4206;48.634;9.516;2022-11-12T02:07:33;1.20;99.90
8338;DHT22;4206;48.634;9.516;2022-11-12T02:10:01;1.20;99.90
8338;DHT22;4206;48.634;9.516;2022-11-12T02:12:27;1.20;99.90
8338;DHT22;4206;48.634;9.516;2022-11-12T02:15:08;1.20;99.90
8338;DHT22;4206;48.634;9.516;2022-11-12T02:17:34;1.20;99.90
8338;DHT22;4206;48.634;9.516;2022-11-12T02:20:00;1.20;99.90
8338;DHT22;4206;48.634;9.516;2022-11-12T02:22:26;1.20;99.90
8338;DHT22;4206;48.634;9.516;2022-11-12T02:24:51;1.30;99.90
8338;DHT22;4206;48.634;9.516;2022-11-12T02:27:17;1.30;99.90
8338;DHT22;4206;48.634;9.516;2022-11-12T02:29:43;1.30;99.90
8338;DHT22;4206;48.634;9.516;2022-11-12T02:32:12;1.30;99.90
8338;DHT22;4206;48.634;9.516;2022-11-12T02:34:38;1.30;99.90
8338;DHT22;4206;48.634;9.516;2022-11-12T02:37:05;1.30;99.90
8338;DHT22;4206;48.634;9.516;2022-11-12T02:39:31;1.30;99.90
8338;DHT22;4206;48.634;9.516;2022-11-12T02:41:56;1.40;99.90
8338;DHT22;4206;48.634;9.516;2022-11-12T02:44:22;1.40;99.90
8338;DHT22;4206;48.634;9.516;2022-11-12T02:46:48;1.40;99.90
8338;DHT22;4206;48.634;9.516;2022-11-12T02:49:13;1.40;99.90
8338;DHT22;4206;48.634;9.516;2022-11-12T02:51:39;1.50;99.90
8338;DHT22;4206;48.634;9.516;2022-11-12T02:54:04;1.50;99.90
8338;DHT22;4206;48.634;9.516;2022-11-12T02:56:30;1.60;99.90
8338;DHT22;4206;48.634;9.516;2022-11-12T02:58:56;1.60;99.90
8338;DHT22;4206;48.634;9.516;2022-11-12T03:01:22;1.60;99.90
8338;DHT22;4206;48.634;9.516;2022-11-12T03:03:47;1.60;99.90
8338;DHT22;4206;48.634;9.516;2022-11-12T03:06:13;1.60;99.90
8338;DHT22;4206;48.634;9.516;2022-11-12T03:08:39;1.60;99.90
8338;DHT22;4206;48.634;9.516;2022-11-12T03:11:06;1.60;99.90
8338;DHT22;4206;48.634;9.516;2022-11-12T03:13:32;1.60;99.90
8338;DHT22;4206;48.634;9.516;2022-11-12T03:15:59;1.60;99.90
8338;DHT22;4206;48.634;9.516;2022-11-12T03:18:25;1.60;99.90
8338;DHT22;4206;48.634;9.516;2022-11-12T03:20:51;1.60;99.90
8338;DHT22;4206;48.634;9.516;2022-11-12T03:23:16;1.50;99.90
8338;DHT22;4206;48.634;9.516;2022-11-12T03:25:42;1.60;99.90
8338;DHT22;4206;48.634;9.516;2022-11-12T03:28:11;1.60;99.90
8338;DHT22;4206;48.634;9.516;2022-11-12T03:30:38;1.70;99.90
8338;DHT22;4206;48.634;9.516;2022-11-12T03:33:05;1.80;99.90
8338;DHT22;4206;48.634;9.516;2022-11-12T03:35:31;1.90;99.90
8338;DHT22;4206;48.634;9.516;2022-11-12T03:37:58;2.00;99.90
8338;DHT22;4206;48.634;9.516;2022-11-12T03:40:24;2.00;99.90
8338;DHT22;4206;48.634;9.516;2022-11-12T03:42:51;2.10;99.90
8338;DHT22;4206;48.634;9.516;2022-11-12T03:45:18;2.10;99.90
8338;DHT22;4206;48.634;9.516;2022-11-12T03:47:46;2.10;99.90
8338;DHT22;4206;48.634;9.516;2022-11-12T03:50:13;2.10;99.90
8338;DHT22;4206;48.634;9.516;2022-11-12T03:52:45;2.20;99.90
8338;DHT22;4206;48.634;9.516;2022-11-12T03:55:11;2.20;99.90
8338;DHT22;4206;48.634;9.516;2022-11-12T03:57:37;2.30;99.90
8338;DHT22;4206;48.634;9.516;2022-11-12T04:00:05;2.40;99.90
8338;DHT22;4206;48.634;9.516;2022-11-12T04:02:30;2.40;99.90
8338;DHT22;4206;48.634;9.516;2022-11-12T04:04:56;2.40;99.90
8338;DHT22;4206;48.634;9.516;2022-11-12T04:07:37;2.40;99.90
8338;DHT22;4206;48.634;9.516;2022-11-12T04:10:18;2.40;99.90
8338;DHT22;4206;48.634;9.516;2022-11-12T04:12:43;2.40;99.90
8338;DHT22;4206;48.634;9.516;2022-11-12T04:15:24;2.40;99.90
8338;DHT22;4206;48.634;9.516;2022-11-12T04:17:50;2.40;99.90
8338;DHT22;4206;48.634;9.516;2022-11-12T04:20:31;2.40;99.90
8338;DHT22;4206;48.634;9.516;2022-11-12T04:23:12;2.30;99.90
8338;DHT22;4206;48.634;9.516;2022-11-12T04:25:38;2.40;99.90
8338;DHT22;4206;48.634;9.516;2022-11-12T04:28:19;2.40;99.90
8338;DHT22;4206;48.634;9.516;2022-11-12T04:30:45;2.40;99.90
8338;DHT22;4206;48.634;9.516;2022-11-12T04:33:10;2.50;99.90
8338;DHT22;4206;48.634;9.516;2022-11-12T04:35:36;2.50;99.90
8338;DHT22;4206;48.634;9.516;2022-11-12T04:38:01;2.50;99.90
8338;DHT22;4206;48.634;9.516;2022-11-12T04:40:27;2.40;99.90
8338;DHT22;4206;48.634;9.516;2022-11-12T04:43:12;2.40;99.90
8338;DHT22;4206;48.634;9.516;2022-11-12T04:45:54;2.40;99.90
8338;DHT22;4206;48.634;9.516;2022-11-12T04:48:21;2.30;99.90
8338;DHT22;4206;48.634;9.516;2022-11-12T04:50:49;2.30;99.90
8338;DHT22;4206;48.634;9.516;2022-11-12T04:53:15;2.30;99.90
8338;DHT22;4206;48.634;9.516;2022-11-12T04:55:40;2.20;99.90
8338;DHT22;4206;48.634;9.516;2022-11-12T04:58:06;2.30;99.90
8338;DHT22;4206;48.634;9.516;2022-11-12T05:00:32;2.30;99.90
8338;DHT22;4206;48.634;9.516;2022-11-12T05:02:57;2.30;99.90
8338;DHT22;4206;48.634;9.516;2022-11-12T05:05:23;2.30;99.90
8338;DHT22;4206;48.634;9.516;2022-11-12T05:07:49;2.30;99.90
8338;DHT22;4206;48.634;9.516;2022-11-12T05:10:14;2.30;99.90
8338;DHT22;4206;48.634;9.516;2022-11-12T05:12:42;2.30;99.90
8338;DHT22;4206;48.634;9.516;2022-11-12T05:15:33;2.30;99.90
8338;DHT22;4206;48.634;9.516;2022-11-12T05:17:59;2.30;99.90
8338;DHT22;4206;48.634;9.516;2022-11-12T05:20:24;2.30;99.90
8338;DHT22;4206;48.634;9.516;2022-11-12T05:22:50;2.30;99.90
8338;DHT22;4206;48.634;9.516;2022-11-12T05:25:15;2.30;99.90
8338;DHT22;4206;48.634;9.516;2022-11-12T05:27:41;2.40;99.90
8338;DHT22;4206;48.634;9.516;2022-11-12T05:30:07;2.40;99.90
8338;DHT22;4206;48.634;9.516;2022-11-12T05:32:33;2.40;99.90
8338;DHT22;4206;48.634;9.516;2022-11-12T05:34:58;2.40;99.90
8338;DHT22;4206;48.634;9.516;2022-11-12T05:37:24;2.40;99.90
8338;DHT22;4206;48.634;9.516;2022-11-12T05:39:50;2.40;99.90
8338;DHT22;4206;48.634;9.516;2022-11-12T05:42:15;2.40;99.90
8338;DHT22;4206;48.634;9.516;2022-11-12T05:44:41;2.40;99.90
8338;DHT22;4206;48.634;9.516;2022-11-12T05:47:06;2.40;99.90
8338;DHT22;4206;48.634;9.516;2022-11-12T05:49:32;2.40;99.90
8338;DHT22;4206;48.634;9.516;2022-11-12T05:51:58;2.40;99.90
8338;DHT22;4206;48.634;9.516;2022-11-12T05:54:23;2.40;99.90
8338;DHT22;4206;48.634;9.516;2022-11-12T05:56:50;2.40;99.90
8338;DHT22;4206;48.634;9.516;2022-11-12T05:59:17;2.40;99.90
8338;DHT22;4206;48.634;9.516;2022-11-12T06:01:42;2.40;99.90
8338;DHT22;4206;48.634;9.516;2022-11-12T06:04:10;2.50;99.90
8338;DHT22;4206;48.634;9.516;2022-11-12T06:06:36;2.60;99.90
8338;DHT22;4206;48.634;9.516;2022-11-12T06:09:02;2.60;99.90
8338;DHT22;4206;48.634;9.516;2022-11-12T06:11:28;2.60;99.90
8338;DHT22;4206;48.634;9.516;2022-11-12T06:13:53;2.60;99.90
8338;DHT22;4206;48.634;9.516;2022-11-12T06:16:19;2.60;99.90
8338;DHT22;4206;48.634;9.516;2022-11-12T06:18:45;2.50;99.90
8338;DHT22;4206;48.634;9.516;2022-11-12T06:21:11;2.40;99.90
8338;DHT22;4206;48.634;9.516;2022-11-12T06:23:44;2.40;99.90
8338;DHT22;4206;48.634;9.516;2022-11-12T06:26:10;2.30;99.90
8338;DHT22;4206;48.634;9.516;2022-11-12T06:28:35;2.30;99.90
8338;DHT22;4206;48.634;9.516;2022-11-12T06:31:01;2.20;99.90
8338;DHT22;4206;48.634;9.516;2022-11-12T06:33:27;2.20;99.90
8338;DHT22;4206;48.634;9.516;2022-11-12T06:35:57;2.20;99.90
8338;DHT22;4206;48.634;9.516;2022-11-12T06:38:29;2.20;99.90
8338;DHT22;4206;48.634;9.516;2022-11-12T06:40:55;2.20;99.90
8338;DHT22;4206;48.634;9.516;2022-11-12T06:43:20;2.20;99.90
8338;DHT22;4206;48.634;9.516;2022-11-12T06:45:46;2.10;99.90
8338;DHT22;4206;48.634;9.516;2022-11-12T06:48:12;2.10;99.90
8338;DHT22;4206;48.634;9.516;2022-11-12T06:50:37;2.20;99.90
8338;DHT22;4206;48.634;9.516;2022-11-12T06:53:03;2.20;99.90
8338;DHT22;4206;48.634;9.516;2022-11-12T06:55:28;2.20;99.90
8338;DHT22;4206;48.634;9.516;2022-11-12T06:57:54;2.20;99.90
8338;DHT22;4206;48.634;9.516;2022-11-12T07:00:20;2.30;99.90
8338;DHT22;4206;48.634;9.516;2022-11-12T07:02:46;2.40;99.90
8338;DHT22;4206;48.634;9.516;2022-11-12T07:05:11;2.50;99.90
8338;DHT22;4206;48.634;9.516;2022-11-12T07:07:37;2.50;99.90
8338;DHT22;4206;48.634;9.516;2022-11-12T07:10:03;2.50;99.90
8338;DHT22;4206;48.634;9.516;2022-11-12T07:12:29;2.50;99.90
8338;DHT22;4206;48.634;9.516;2022-11-12T07:14:54;2.60;99.90
8338;DHT22;4206;48.634;9.516;2022-11-12T07:17:21;2.60;99.90
8338;DHT22;4206;48.634;9.516;2022-11-12T07:19:46;2.70;99.90
8338;DHT22;4206;48.634;9.516;2022-11-12T07:22:12;2.80;99.90
8338;DHT22;4206;48.634;9.516;2022-11-12T07:24:37;2.90;99.90
8338;DHT22;4206;48.634;9.516;2022-11-12T07:27:03;3.00;99.90
8338;DHT22;4206;48.634;9.516;2022-11-12T07:29:29;3.10;99.90
8338;DHT22;4206;48.634;9.516;2022-11-12T07:31:55;3.30;99.90
8338;DHT22;4206;48.634;9.516;2022-11-12T07:34:21;3.40;99.90
8338;DHT22;4206;48.634;9.516;2022-11-12T07:36:46;3.90;99.90
8338;DHT22;4206;48.634;9.516;2022-11-12T07:39:16;4.40;99.90
8338;DHT22;4206;48.634;9.516;2022-11-12T07:41:42;5.40;99.90
8338;DHT22;4206;48.634;9.516;2022-11-12T07:44:07;6.40;99.90
8338;DHT22;4206;48.634;9.516;2022-11-12T07:46:33;7.20;99.90
8338;DHT22;4206;48.634;9.516;2022-11-12T07:48:58;8.00;99.90
8338;DHT22;4206;48.634;9.516;2022-11-12T07:51:26;8.00;99.90
8338;DHT22;4206;48.634;9.516;2022-11-12T07:53:53;8.30;99.90
8338;DHT22;4206;48.634;9.516;2022-11-12T07:56:21;8.70;99.90
8338;DHT22;4206;48.634;9.516;2022-11-12T07:58:48;8.30;99.90
8338;DHT22;4206;48.634;9.516;2022-11-12T08:01:23;8.90;99.90
8338;DHT22;4206;48.634;9.516;2022-11-12T08:03:50;7.80;99.90
8338;DHT22;4206;48.634;9.516;2022-11-12T08:06:15;7.70;99.90
8338;DHT22;4206;48.634;9.516;2022-11-12T08:08:41;7.40;99.90
8338;DHT22;4206;48.634;9.516;2022-11-12T08:11:07;6.90;99.90
8338;DHT22;4206;48.634;9.516;2022-11-12T08:13:33;6.40;99.90
8338;DHT22;4206;48.634;9.516;2022-11-12T08:15:59;6.50;99.90
8338;DHT22;4206;48.634;9.516;2022-11-12T08:18:26;6.30;99.90
8338;DHT22;4206;48.634;9.516;2022-11-12T08:20:51;6.10;99.90
8338;DHT22;4206;48.634;9.516;2022-11-12T08:23:17;6.10;99.90
8338;DHT22;4206;48.634;9.516;2022-11-12T08:25:43;6.00;99.90
8338;DHT22;4206;48.634;9.516;2022-11-12T08:28:09;6.30;99.90
8338;DHT22;4206;48.634;9.516;2022-11-12T08:30:35;6.00;99.90
8338;DHT22;4206;48.634;9.516;2022-11-12T08:33:03;6.10;99.90
8338;DHT22;4206;48.634;9.516;2022-11-12T08:35:32;6.40;99.90
8338;DHT22;4206;48.634;9.516;2022-11-12T08:37:59;6.40;99.90
8338;DHT22;4206;48.634;9.516;2022-11-12T08:40:26;6.30;99.90
8338;DHT22;4206;48.634;9.516;2022-11-12T08:43:00;6.50;99.90
8338;DHT22;4206;48.634;9.516;2022-11-12T08:45:27;6.60;99.90
8338;DHT22;4206;48.634;9.516;2022-11-12T08:47:57;6.60;99.90
8338;DHT22;4206;48.634;9.516;2022-11-12T08:50:23;6.90;99.90
8338;DHT22;4206;48.634;9.516;2022-11-12T08:52:48;6.80;99.90
8338;DHT22;4206;48.634;9.516;2022-11-12T08:55:14;6.70;99.90
8338;DHT22;4206;48.634;9.516;2022-11-12T08:57:41;6.70;99.90
8338;DHT22;4206;48.634;9.516;2022-11-12T09:00:08;6.80;99.90
8338;DHT22;4206;48.634;9.516;2022-11-12T09:02:34;6.70;99.90
8338;DHT22;4206;48.634;9.516;2022-11-12T09:05:00;6.70;99.90
8338;DHT22;4206;48.634;9.516;2022-11-12T09:07:25;6.60;99.90
8338;DHT22;4206;48.634;9.516;2022-11-12T09:09:51;6.60;99.90
8338;DHT22;4206;48.634;9.516;2022-11-12T09:12:16;6.50;99.90
8338;DHT22;4206;48.634;9.516;2022-11-12T09:14:44;6.80;99.90
8338;DHT22;4206;48.634;9.516;2022-11-12T09:17:10;6.80;99.90
8338;DHT22;4206;48.634;9.516;2022-11-12T09:19:36;7.10;99.90
8338;DHT22;4206;48.634;9.516;2022-11-12T09:22:02;7.40;99.90
8338;DHT22;4206;48.634;9.516;2022-11-12T09:24:28;7.40;99.90
8338;DHT22;4206;48.634;9.516;2022-11-12T09:26:54;7.20;99.90
8338;DHT22;4206;48.634;9.516;2022-11-12T09:29:20;7.20;99.90
8338;DHT22;4206;48.634;9.516;2022-11-12T09:31:46;7.60;99.90
8338;DHT22;4206;48.634;9.516;2022-11-12T09:34:11;7.60;99.90
8338;DHT22;4206;48.634;9.516;2022-11-12T09:36:37;7.50;99.90
8338;DHT22;4206;48.634;9.516;2022-11-12T09:39:03;7.10;99.90
8338;DHT22;4206;48.634;9.516;2022-11-12T09:41:35;7.10;99.90
8338;DHT22;4206;48.634;9.516;2022-11-12T09:44:03;7.40;99.90
8338;DHT22;4206;48.634;9.516;2022-11-12T09:49:10;7.70;99.90
8338;DHT22;4206;48.634;9.516;2022-11-12T09:51:42;7.70;99.90
8338;DHT22;4206;48.634;9.516;2022-11-12T09:54:26;7.60;99.90
8338;DHT22;4206;48.634;9.516;2022-11-12T09:56:53;8.20;99.90
8338;DHT22;4206;48.634;9.516;2022-11-12T09:59:19;8.10;99.90
8338;DHT22;4206;48.634;9.516;2022-11-12T10:13:02;9.50;99.90
8338;DHT22;4206;48.634;9.516;2022-11-12T10:20:58;10.60;99.90
8338;DHT22;4206;48.634;9.516;2022-11-12T10:23:31;10.80;99.90
8338;DHT22;4206;48.634;9.516;2022-11-12T10:26:09;10.60;99.90
8338;DHT22;4206;48.634;9.516;2022-11-12T10:28:47;10.80;99.90
8338;DHT22;4206;48.634;9.516;2022-11-12T10:31:16;10.80;99.90
8338;DHT22;4206;48.634;9.516;2022-11-12T10:33:43;11.20;99.90
8338;DHT22;4206;48.634;9.516;2022-11-12T10:36:22;11.70;99.90
8338;DHT22;4206;48.634;9.516;2022-11-12T10:38:52;12.30;99.90
8338;DHT22;4206;48.634;9.516;2022-11-12T10:46:24;13.00;99.90
8338;DHT22;4206;48.634;9.516;2022-11-12T10:48:55;13.20;99.90
8338;DHT22;4206;48.634;9.516;2022-11-12T10:51:26;13.30;99.90
8338;DHT22;4206;48.634;9.516;2022-11-12T10:53:52;13.40;99.90
8338;DHT22;4206;48.634;9.516;2022-11-12T10:56:33;13.70;99.90
8338;DHT22;4206;48.634;9.516;2022-11-12T11:06:42;13.30;99.90
8338;DHT22;4206;48.634;9.516;2022-11-12T11:11:37;14.30;99.90
8338;DHT22;4206;48.634;9.516;2022-11-12T11:14:28;14.20;99.90
8338;DHT22;4206;48.634;9.516;2022-11-12T11:19:33;13.70;99.90
8338;DHT22;4206;48.634;9.516;2022-11-12T11:38:18;12.90;99.90
8338;DHT22;4206;48.634;9.516;2022-11-12T11:54:31;14.60;99.90
8338;DHT22;4206;48.634;9.516;2022-11-12T11:57:02;14.70;99.90
8338;DHT22;4206;48.634;9.516;2022-11-12T11:59:45;15.20;99.90
8338;DHT22;4206;48.634;9.516;2022-11-12T12:08:02;14.70;99.90
8338;DHT22;4206;48.634;9.516;2022-11-12T12:15:37;16.30;99.90
8338;DHT22;4206;48.634;9.516;2022-11-12T12:18:17;15.90;99.90
8338;DHT22;4206;48.634;9.516;2022-11-12T12:20:56;15.90;99.90
8338;DHT22;4206;48.634;9.516;2022-11-12T12:23:31;15.60;99.90
8338;DHT22;4206;48.634;9.516;2022-11-12T12:26:00;15.10;99.90
8338;DHT22;4206;48.634;9.516;2022-11-12T12:28:38;15.00;99.90
8338;DHT22;4206;48.634;9.516;2022-11-12T12:31:11;14.80;99.90
8338;DHT22;4206;48.634;9.516;2022-11-12T12:33:42;14.70;99.90
8338;DHT22;4206;48.634;9.516;2022-11-12T12:36:14;14.90;99.90
8338;DHT22;4206;48.634;9.516;2022-11-12T12:41:24;15.00;99.90
8338;DHT22;4206;48.634;9.516;2022-11-12T12:43:54;15.70;99.90
8338;DHT22;4206;48.634;9.516;2022-11-12T12:46:24;15.90;99.90
8338;DHT22;4206;48.634;9.516;2022-11-12T12:48:52;15.50;99.90
8338;DHT22;4206;48.634;9.516;2022-11-12T12:51:19;15.70;99.90
8338;DHT22;4206;48.634;9.516;2022-11-12T12:53:46;16.00;99.90
8338;DHT22;4206;48.634;9.516;2022-11-12T12:58:46;15.70;99.90
8338;DHT22;4206;48.634;9.516;2022-11-12T13:06:38;15.70;99.90
8338;DHT22;4206;48.634;9.516;2022-11-12T13:09:06;15.50;99.90
8338;DHT22;4206;48.634;9.516;2022-11-12T14:29:01;12.00;99.90
8338;DHT22;4206;48.634;9.516;2022-11-12T14:31:27;12.00;99.90
8338;DHT22;4206;48.634;9.516;2022-11-12T14:33:53;11.80;99.90
8338;DHT22;4206;48.634;9.516;2022-11-12T14:36:20;11.50;99.90
8338;DHT22;4206;48.634;9.516;2022-11-12T14:38:50;11.40;99.90
8338;DHT22;4206;48.634;9.516;2022-11-12T14:41:25;11.30;99.90
8338;DHT22;4206;48.634;9.516;2022-11-12T14:43:55;11.30;99.90
8338;DHT22;4206;48.634;9.516;2022-11-12T14:51:21;11.00;99.90
8338;DHT22;4206;48.634;9.516;2022-11-12T14:53:55;10.90;99.90
8338;DHT22;4206;48.634;9.516;2022-11-12T14:56:33;10.70;99.90
8338;DHT22;4206;48.634;9.516;2022-11-12T14:59:00;10.80;99.90
8338;DHT22;4206;48.634;9.516;2022-11-12T15:01:33;10.80;99.90
8338;DHT22;4206;48.634;9.516;2022-11-12T15:04:16;10.80;99.90
8338;DHT22;4206;48.634;9.516;2022-11-12T15:06:51;10.70;99.90
8338;DHT22;4206;48.634;9.516;2022-11-12T15:09:18;10.60;99.90
8338;DHT22;4206;48.634;9.516;2022-11-12T15:11:47;10.50;99.90
8338;DHT22;4206;48.634;9.516;2022-11-12T15:14:21;10.50;99.90
8338;DHT22;4206;48.634;9.516;2022-11-12T15:16:48;10.50;99.90
8338;DHT22;4206;48.634;9.516;2022-11-12T15:19:19;10.20;99.90
8338;DHT22;4206;48.634;9.516;2022-11-12T15:26:42;9.90;99.90
8338;DHT22;4206;48.634;9.516;2022-11-12T15:31:53;9.80;99.90
8338;DHT22;4206;48.634;9.516;2022-11-12T15:37:09;9.60;99.90
8338;DHT22;4206;48.634;9.516;2022-11-12T15:39:41;9.50;99.90
8338;DHT22;4206;48.634;9.516;2022-11-12T15:42:18;9.40;99.90
8338;DHT22;4206;48.634;9.516;2022-11-12T15:44:46;9.40;99.90
8338;DHT22;4206;48.634;9.516;2022-11-12T15:47:20;9.30;99.90
8338;DHT22;4206;48.634;9.516;2022-11-12T15:49:48;9.20;99.90
8338;DHT22;4206;48.634;9.516;2022-11-12T15:52:14;9.10;99.90
8338;DHT22;4206;48.634;9.516;2022-11-12T15:54:40;9.10;99.90
8338;DHT22;4206;48.634;9.516;2022-11-12T15:57:10;9.00;99.90
8338;DHT22;4206;48.634;9.516;2022-11-12T15:59:37;8.90;99.90
8338;DHT22;4206;48.634;9.516;2022-11-12T16:02:09;8.80;99.90
8338;DHT22;4206;48.634;9.516;2022-11-12T16:04:35;8.70;99.90
8338;DHT22;4206;48.634;9.516;2022-11-12T16:07:00;8.60;99.90
8338;DHT22;4206;48.634;9.516;2022-11-12T16:09:26;8.50;99.90
8338;DHT22;4206;48.634;9.516;2022-11-12T16:11:52;8.40;99.90
8338;DHT22;4206;48.634;9.516;2022-11-12T16:14:21;8.40;99.90
8338;DHT22;4206;48.634;9.516;2022-11-12T16:16:47;8.20;99.90
8338;DHT22;4206;48.634;9.516;2022-11-12T16:19:13;8.20;99.90
8338;DHT22;4206;48.634;9.516;2022-11-12T16:21:39;8.10;99.90
8338;DHT22;4206;48.634;9.516;2022-11-12T16:24:05;8.10;99.90
8338;DHT22;4206;48.634;9.516;2022-11-12T16:26:32;8.00;99.90
8338;DHT22;4206;48.634;9.516;2022-11-12T16:28:58;7.90;99.90
8338;DHT22;4206;48.634;9.516;2022-11-12T16:31:24;7.80;99.90
8338;DHT22;4206;48.634;9.516;2022-11-12T16:33:50;7.70;99.90
8338;DHT22;4206;48.634;9.516;2022-11-12T16:36:16;7.60;99.90
8338;DHT22;4206;48.634;9.516;2022-11-12T16:38:43;7.50;99.90
8338;DHT22;4206;48.634;9.516;2022-11-12T16:41:10;7.40;99.90
8338;DHT22;4206;48.634;9.516;2022-11-12T16:43:37;7.30;99.90
8338;DHT22;4206;48.634;9.516;2022-11-12T16:46:12;7.30;99.90
8338;DHT22;4206;48.634;9.516;2022-11-12T16:48:38;7.20;99.90
8338;DHT22;4206;48.634;9.516;2022-11-12T16:51:04;7.10;99.90
8338;DHT22;4206;48.634;9.516;2022-11-12T16:53:30;7.00;99.90
8338;DHT22;4206;48.634;9.516;2022-11-12T16:55:56;6.90;99.90
8338;DHT22;4206;48.634;9.516;2022-11-12T16:58:21;6.90;99.90
8338;DHT22;4206;48.634;9.516;2022-11-12T17:00:47;6.80;99.90
8338;DHT22;4206;48.634;9.516;2022-11-12T17:03:14;6.70;99.90
8338;DHT22;4206;48.634;9.516;2022-11-12T17:05:40;6.70;99.90
8338;DHT22;4206;48.634;9.516;2022-11-12T17:08:07;6.60;99.90
8338;DHT22;4206;48.634;9.516;2022-11-12T17:10:33;6.60;99.90
8338;DHT22;4206;48.634;9.516;2022-11-12T17:12:59;6.50;99.90
8338;DHT22;4206;48.634;9.516;2022-11-12T17:15:24;6.40;99.90
8338;DHT22;4206;48.634;9.516;2022-11-12T17:17:52;6.40;99.90
8338;DHT22;4206;48.634;9.516;2022-11-12T17:20:18;6.30;99.90
8338;DHT22;4206;48.634;9.516;2022-11-12T17:22:44;6.20;99.90
8338;DHT22;4206;48.634;9.516;2022-11-12T17:25:10;6.20;99.90
8338;DHT22;4206;48.634;9.516;2022-11-12T17:27:35;6.10;99.90
8338;DHT22;4206;48.634;9.516;2022-11-12T17:30:02;6.00;99.90
8338;DHT22;4206;48.634;9.516;2022-11-12T17:32:28;5.90;99.90
8338;DHT22;4206;48.634;9.516;2022-11-12T17:34:53;5.90;99.90
8338;DHT22;4206;48.634;9.516;2022-11-12T17:37:19;5.80;99.90
8338;DHT22;4206;48.634;9.516;2022-11-12T17:39:45;5.70;99.90
8338;DHT22;4206;48.634;9.516;2022-11-12T17:42:10;5.60;99.90
8338;DHT22;4206;48.634;9.516;2022-11-12T17:44:36;5.50;99.90
8338;DHT22;4206;48.634;9.516;2022-11-12T17:47:02;5.50;99.90
8338;DHT22;4206;48.634;9.516;2022-11-12T17:49:27;5.40;99.90
8338;DHT22;4206;48.634;9.516;2022-11-12T17:51:53;5.30;99.90
8338;DHT22;4206;48.634;9.516;2022-11-12T17:54:19;5.30;99.90
8338;DHT22;4206;48.634;9.516;2022-11-12T17:56:45;5.20;99.90
8338;DHT22;4206;48.634;9.516;2022-11-12T17:59:11;5.30;99.90
8338;DHT22;4206;48.634;9.516;2022-11-12T18:01:36;5.10;99.90
8338;DHT22;4206;48.634;9.516;2022-11-12T18:04:02;5.10;99.90
8338;DHT22;4206;48.634;9.516;2022-11-12T18:06:31;5.00;99.90
8338;DHT22;4206;48.634;9.516;2022-11-12T18:08:59;5.00;99.90
8338;DHT22;4206;48.634;9.516;2022-11-12T18:11:27;5.00;99.90
8338;DHT22;4206;48.634;9.516;2022-11-12T18:13:53;4.80;99.90
8338;DHT22;4206;48.634;9.516;2022-11-12T18:16:22;4.80;99.90
8338;DHT22;4206;48.634;9.516;2022-11-12T18:18:49;4.70;99.90
8338;DHT22;4206;48.634;9.516;2022-11-12T18:21:15;4.60;99.90
8338;DHT22;4206;48.634;9.516;2022-11-12T18:23:43;4.60;99.90
8338;DHT22;4206;48.634;9.516;2022-11-12T18:26:09;4.50;99.90
8338;DHT22;4206;48.634;9.516;2022-11-12T18:28:38;4.50;99.90
8338;DHT22;4206;48.634;9.516;2022-11-12T18:31:05;4.50;99.90
8338;DHT22;4206;48.634;9.516;2022-11-12T18:33:31;4.40;99.90
8338;DHT22;4206;48.634;9.516;2022-11-12T18:36:13;4.40;99.90
8338;DHT22;4206;48.634;9.516;2022-11-12T18:38:41;4.40;99.90
8338;DHT22;4206;48.634;9.516;2022-11-12T18:41:10;4.30;99.90
8338;DHT22;4206;48.634;9.516;2022-11-12T18:43:36;4.20;99.90
8338;DHT22;4206;48.634;9.516;2022-11-12T18:46:02;4.20;99.90
8338;DHT22;4206;48.634;9.516;2022-11-12T18:48:30;4.20;99.90
8338;DHT22;4206;48.634;9.516;2022-11-12T18:51:00;4.10;99.90
8338;DHT22;4206;48.634;9.516;2022-11-12T18:53:27;4.10;99.90
8338;DHT22;4206;48.634;9.516;2022-11-12T18:55:54;4.00;99.90
8338;DHT22;4206;48.634;9.516;2022-11-12T18:58:20;4.00;99.90
8338;DHT22;4206;48.634;9.516;2022-11-12T19:00:46;3.90;99.90
8338;DHT22;4206;48.634;9.516;2022-11-12T19:03:11;3.80;99.90
8338;DHT22;4206;48.634;9.516;2022-11-12T19:05:37;3.80;99.90
8338;DHT22;4206;48.634;9.516;2022-11-12T19:08:03;3.70;99.90
8338;DHT22;4206;48.634;9.516;2022-11-12T19:10:28;3.70;99.90
8338;DHT22;4206;48.634;9.516;2022-11-12T19:12:54;3.60;99.90
8338;DHT22;4206;48.634;9.516;2022-11-12T19:15:21;3.60;99.90
8338;DHT22;4206;48.634;9.516;2022-11-12T19:17:47;3.50;99.90
8338;DHT22;4206;48.634;9.516;2022-11-12T19:20:12;3.50;99.90
8338;DHT22;4206;48.634;9.516;2022-11-12T19:22:38;3.50;99.90
8338;DHT22;4206;48.634;9.516;2022-11-12T19:25:04;3.50;99.90